Time;durP1;ratioP1;P1;durP2;ratioP2;P2;SDS_P1;SDS_P2;PMS_P1;PMS_P2;Temp;Humidity;BMP_temperature;BMP_pressure;BME280_temperature;BME280_humidity;BME280_pressure;Samples;Min_cycle;Max_cycle;Signal;HPM_P1;HPM_P2
2023/02/09 00:05:12;;;;;;;1999.90;999.90;;;0.30;98.20;;;;;;6741824;87;20220;-75
2023/02/09 00:15:12;;;;;;;1999.90;999.90;;;0.40;98.30;;;;;;6753781;87;20176;-75
2023/02/09 00:25:13;;;;;;;1999.90;999.90;;;0.30;98.50;;;;;;6751187;88;20201;-75
2023/02/09 00:35:13;;;;;;;1999.90;999.90;;;0.20;99.00;;;;;;6753656;87;20313;-75
2023/02/09 00:45:14;;;;;;;1999.90;999.90;;;0.20;99.30;;;;;;6755598;87;20172;-75
2023/02/09 00:55:15;;;;;;;1999.90;999.90;;;0.20;99.50;;;;;;6750390;87;20358;-75
2023/02/09 01:05:15;;;;;;;1999.90;999.90;;;0.10;99.90;;;;;;6748774;87;20243;-75
2023/02/09 01:15:16;;;;;;;1999.90;999.90;;;-0.10;99.90;;;;;;6751715;87;20264;-76
2023/02/09 01:25:17;;;;;;;1999.90;999.90;;;0.10;99.90;;;;;;6756915;87;20586;-75
2023/02/09 01:35:17;;;;;;;1999.90;999.90;;;0.00;99.90;;;;;;6751225;87;20196;-75
2023/02/09 01:45:28;;;;;;;1999.90;999.90;;;0.00;99.90;;;;;;6749357;87;20203;-75
2023/02/09 01:55:33;;;;;;;1999.90;999.90;;;-0.10;99.90;;;;;;6750192;88;20201;-76
2023/02/09 02:05:37;;;;;;;1999.90;999.90;;;-0.20;99.90;;;;;;6752526;87;20293;-75
2023/02/09 02:16:09;;;;;;;1999.90;999.90;;;-0.30;99.90;;;;;;6751092;87;20260;-75
2023/02/09 02:26:48;;;;;;;1999.90;999.90;;;-0.20;99.90;;;;;;6746145;87;20240;-75
2023/02/09 02:37:03;;;;;;;1999.90;999.90;;;-0.30;99.90;;;;;;6746460;87;20210;-75
2023/02/09 02:47:07;;;;;;;1999.90;999.90;;;-0.50;99.90;;;;;;6749010;88;20165;-75
2023/02/09 02:57:14;;;;;;;1999.90;999.90;;;-0.50;99.90;;;;;;6753004;87;20220;-76
2023/02/09 03:07:16;;;;;;;1999.90;999.90;;;-0.70;99.90;;;;;;6747155;88;20184;-76
2023/02/09 03:17:39;;;;;;;1999.90;999.90;;;-0.70;99.90;;;;;;6747046;87;20213;-76
2023/02/09 03:28:05;;;;;;;1999.90;999.90;;;-0.70;99.90;;;;;;6749459;87;20227;-75
2023/02/09 03:38:06;;;;;;;1999.90;999.90;;;-0.80;99.90;;;;;;6747600;87;20208;-76
2023/02/09 03:48:07;;;;;;;1999.90;999.90;;;-1.00;99.90;;;;;;6754846;87;20313;-75
2023/02/09 03:58:07;;;;;;;1999.90;999.90;;;-1.00;99.90;;;;;;6762365;87;20518;-75
2023/02/09 04:08:08;;;;;;;1999.90;999.90;;;-1.00;99.90;;;;;;6752779;87;20201;-77
2023/02/09 04:18:09;;;;;;;1999.90;999.90;;;-1.10;99.90;;;;;;6759917;87;20235;-76
2023/02/09 04:28:09;;;;;;;1999.90;999.90;;;-1.20;99.90;;;;;;6753156;87;20235;-76
2023/02/09 04:38:10;;;;;;;1999.90;999.90;;;-1.30;99.90;;;;;;6752834;87;20218;-76
2023/02/09 04:48:14;;;;;;;1999.90;999.90;;;-1.30;99.90;;;;;;6749739;87;20234;-76
2023/02/09 05:08:35;;;;;;;1999.90;999.90;;;-1.40;99.90;;;;;;6751568;87;20176;-76
2023/02/09 05:18:36;;;;;;;1999.90;999.90;;;-1.50;99.90;;;;;;6749888;87;20710;-75
2023/02/09 05:28:37;;;;;;;1999.90;999.90;;;-1.60;99.90;;;;;;6746276;87;20206;-76
2023/02/09 05:48:40;;;;;;;1999.90;999.90;;;-1.80;99.90;;;;;;6752516;88;20238;-77
2023/02/09 05:58:41;;;;;;;1999.90;999.90;;;-1.90;99.90;;;;;;6754842;87;20661;-75
2023/02/09 06:08:41;;;;;;;1999.90;999.90;;;-1.90;99.90;;;;;;6751036;88;20706;-75
2023/02/09 06:18:42;;;;;;;1999.90;999.90;;;-2.00;99.90;;;;;;6752179;87;20190;-75
2023/02/09 06:28:43;;;;;;;1999.90;999.90;;;-2.00;99.90;;;;;;6756547;88;20285;-75
2023/02/09 06:38:43;;;;;;;1999.90;999.90;;;-1.90;99.90;;;;;;6749200;88;20287;-75
2023/02/09 06:48:44;;;;;;;1999.90;999.90;;;-1.80;99.90;;;;;;6744284;88;20631;-75
2023/02/09 06:58:44;;;;;;;1999.90;999.90;;;-1.90;99.90;;;;;;6746716;88;20533;-74
2023/02/09 07:08:45;;;;;;;1999.90;999.90;;;-1.90;99.90;;;;;;6746272;87;20760;-75
2023/02/09 07:18:46;;;;;;;1999.90;999.90;;;-2.00;99.90;;;;;;6746418;88;20765;-74
2023/02/09 07:28:46;;;;;;;1999.90;999.90;;;-1.90;99.90;;;;;;6748272;88;20213;-74
2023/02/09 07:38:47;;;;;;;1999.90;999.90;;;-1.80;99.90;;;;;;6745014;88;20673;-74
2023/02/09 07:48:48;;;;;;;1999.90;999.90;;;-1.70;99.90;;;;;;6748841;88;20209;-74
2023/02/09 07:58:49;;;;;;;1999.90;999.90;;;-1.50;99.90;;;;;;6752626;88;20209;-74
2023/02/09 08:08:50;;;;;;;1999.90;999.90;;;-1.20;99.90;;;;;;6752144;88;20206;-75
2023/02/09 08:18:56;;;;;;;1999.90;999.90;;;-0.90;99.90;;;;;;6744102;88;20236;-74
2023/02/09 08:28:57;;;;;;;1999.90;999.90;;;-0.50;99.90;;;;;;6746876;88;20646;-75
2023/02/09 08:38:57;;;;;;;1999.90;999.90;;;-0.20;99.90;;;;;;6750267;88;20181;-75
2023/02/09 08:48:58;;;;;;;1999.90;999.90;;;0.30;99.90;;;;;;6751653;87;20229;-75
2023/02/09 08:58:58;;;;;;;1999.90;999.90;;;0.30;99.90;;;;;;6764590;88;20962;-75
2023/02/09 09:08:59;;;;;;;1999.90;999.90;;;0.80;99.90;;;;;;6756526;88;20666;-75
2023/02/09 09:18:59;;;;;;;1999.90;999.90;;;1.10;99.90;;;;;;6746417;88;20259;-75
2023/02/09 09:29:00;;;;;;;1999.90;999.90;;;1.60;99.90;;;;;;6741345;88;20451;-76
2023/02/09 09:39:01;;;;;;;1999.90;999.90;;;2.60;99.90;;;;;;6749728;87;20710;-76
2023/02/09 09:49:02;;;;;;;1999.90;999.90;;;2.40;99.90;;;;;;6748036;88;20261;-74
2023/02/09 09:59:03;;;;;;;1999.90;999.90;;;3.10;99.90;;;;;;6742980;88;20185;-76
2023/02/09 10:09:15;;;;;;;1999.90;999.90;;;3.50;99.90;;;;;;6744443;88;20835;-75
2023/02/09 10:19:21;;;;;;;1999.90;999.90;;;4.20;99.90;;;;;;6745526;88;20194;-76
2023/02/09 10:29:24;;;;;;;1999.90;999.90;;;4.50;99.90;;;;;;6745101;88;20184;-76
2023/02/09 10:39:29;;;;;;;1999.90;999.90;;;5.70;99.10;;;;;;6742007;87;20694;-77
2023/02/09 10:49:34;;;;;;;1999.90;999.90;;;5.70;99.10;;;;;;6741906;88;20707;-76
2023/02/09 10:59:35;;;;;;;1999.90;999.90;;;5.70;98.30;;;;;;6745488;87;20184;-76
2023/02/09 11:09:40;;;;;;;1999.90;999.90;;;6.30;97.70;;;;;;6742223;88;20191;-75
2023/02/09 11:19:54;;;;;;;1999.90;999.90;;;6.20;98.20;;;;;;6737528;88;20221;-76
2023/02/09 11:30:11;;;;;;;1999.90;999.90;;;6.90;97.30;;;;;;6741623;88;20283;-75
2023/02/09 11:40:26;;;;;;;1999.90;999.90;;;7.90;95.70;;;;;;6739985;88;20795;-74
2023/02/09 11:50:37;;;;;;;1999.90;999.90;;;6.90;96.30;;;;;;6739043;88;20177;-74
2023/02/09 12:00:49;;;;;;;1999.90;999.90;;;7.00;96.40;;;;;;6753404;88;20184;-74
2023/02/09 12:11:10;;;;;;;1999.90;999.90;;;6.60;96.40;;;;;;6749679;88;20207;-74
2023/02/09 12:21:11;;;;;;;1999.90;999.90;;;7.50;96.40;;;;;;6743469;88;20188;-76
2023/02/09 12:31:15;;;;;;;1999.90;999.90;;;8.00;94.80;;;;;;6739143;88;20233;-75
2023/02/09 12:41:17;;;;;;;1999.90;999.90;;;8.20;94.20;;;;;;6742250;87;20621;-76
2023/02/09 12:51:36;;;;;;;1999.90;999.90;;;7.40;94.40;;;;;;6743468;88;20235;-76
2023/02/09 13:02:22;;;;;;;1999.90;999.90;;;8.00;93.40;;;;;;6744649;88;20625;-74
2023/02/09 13:12:33;;;;;;;1999.90;999.90;;;8.90;92.00;;;;;;6685141;88;20193;-76
2023/02/09 13:22:38;;;;;;;1999.90;999.90;;;9.50;91.70;;;;;;6744659;88;20167;-76
2023/02/09 13:32:49;;;;;;;1999.90;999.90;;;11.10;90.70;;;;;;6737530;88;20206;-76
2023/02/09 13:43:16;;;;;;;1999.90;999.90;;;12.00;90.20;;;;;;6741435;88;20382;-75
2023/02/09 13:53:21;;;;;;;1999.90;999.90;;;10.30;89.10;;;;;;6741165;88;20188;-76
2023/02/09 14:03:30;;;;;;;1999.90;999.90;;;10.50;88.50;;;;;;6736505;88;20664;-75
2023/02/09 14:13:41;;;;;;;1999.90;999.90;;;11.10;88.90;;;;;;6738238;88;20245;-75
2023/02/09 14:23:56;;;;;;;1999.90;999.90;;;10.80;87.80;;;;;;6738514;88;20184;-75
2023/02/09 14:33:57;;;;;;;1999.90;999.90;;;10.40;87.60;;;;;;6739819;88;20184;-75
2023/02/09 14:44:00;;;;;;;1999.90;999.90;;;9.60;88.60;;;;;;6738808;88;20210;-74
2023/02/09 14:54:01;;;;;;;1999.90;999.90;;;9.20;88.20;;;;;;6742923;88;20740;-74
2023/02/09 15:04:01;;;;;;;1999.90;999.90;;;8.20;89.90;;;;;;6746511;88;20220;-75
2023/02/09 15:14:02;;;;;;;1999.90;999.90;;;8.10;89.50;;;;;;6756546;88;20228;-76
2023/02/09 15:24:03;;;;;;;1999.90;999.90;;;7.80;90.40;;;;;;6750606;88;20197;-74
2023/02/09 15:34:04;;;;;;;1999.90;999.90;;;7.20;90.50;;;;;;6752056;87;20329;-76
2023/02/09 15:54:38;;;;;;;1999.90;999.90;;;6.50;93.00;;;;;;6746800;87;20188;-75
2023/02/09 16:04:39;;;;;;;1999.90;999.90;;;6.20;93.00;;;;;;6739054;88;20302;-75
2023/02/09 16:14:39;;;;;;;1999.90;999.90;;;5.90;92.60;;;;;;6742605;88;20655;-75
2023/02/09 16:24:44;;;;;;;1999.90;999.90;;;5.60;93.10;;;;;;6740569;88;20245;-75
2023/02/09 16:34:45;;;;;;;1999.90;999.90;;;5.30;93.60;;;;;;6739275;88;20333;-75
2023/02/09 16:44:45;;;;;;;1999.90;999.90;;;5.10;94.30;;;;;;6741026;88;20229;-75
2023/02/09 16:54:53;;;;;;;1999.90;999.90;;;4.90;95.20;;;;;;6746122;88;20540;-75
2023/02/09 17:04:54;;;;;;;1999.90;999.90;;;4.60;96.10;;;;;;6742165;88;20201;-76
2023/02/09 17:14:54;;;;;;;1999.90;999.90;;;4.60;96.20;;;;;;6742426;88;20219;-75
2023/02/09 17:24:55;;;;;;;1999.90;999.90;;;4.30;97.30;;;;;;6740140;88;20623;-77
2023/02/09 17:34:55;;;;;;;1999.90;999.90;;;4.10;98.30;;;;;;6755026;88;20176;-80
2023/02/09 17:44:56;;;;;;;1999.90;999.90;;;3.80;98.80;;;;;;6739333;78;20664;-77
2023/02/09 17:54:56;;;;;;;1999.90;999.90;;;3.40;99.90;;;;;;6726370;88;20328;-76
2023/02/09 18:04:57;;;;;;;1999.90;999.90;;;3.10;99.90;;;;;;6732983;88;20204;-77
2023/02/09 18:14:58;;;;;;;1999.90;999.90;;;2.80;99.90;;;;;;6728798;88;20209;-78
2023/02/09 18:24:59;;;;;;;1999.90;999.90;;;2.70;99.90;;;;;;6728056;88;20251;-77
2023/02/09 18:35:01;;;;;;;1999.90;999.90;;;2.80;99.90;;;;;;6727144;88;20291;-77
2023/02/09 18:45:02;;;;;;;1999.90;999.90;;;2.50;99.90;;;;;;6721535;88;20242;-77
2023/02/09 18:55:02;;;;;;;1999.90;999.90;;;2.30;99.90;;;;;;6725929;88;20247;-77
2023/02/09 19:05:04;;;;;;;1999.90;999.90;;;2.00;99.90;;;;;;6734429;88;20188;-77
2023/02/09 19:15:05;;;;;;;1999.90;999.90;;;1.60;99.90;;;;;;6730516;88;20228;-77
2023/02/09 19:25:06;;;;;;;1999.90;999.90;;;1.70;99.90;;;;;;6732101;88;20285;-78
2023/02/09 19:35:06;;;;;;;1999.90;999.90;;;1.40;99.90;;;;;;6731860;88;20242;-76
2023/02/09 19:45:07;;;;;;;1999.90;999.90;;;1.30;99.90;;;;;;6723422;88;20276;-76
2023/02/09 19:55:10;;;;;;;1999.90;999.90;;;1.00;99.90;;;;;;6724707;88;20237;-76
2023/02/09 20:05:11;;;;;;;1999.90;999.90;;;0.80;99.90;;;;;;6724012;88;20207;-77
2023/02/09 20:15:12;;;;;;;1999.90;999.90;;;0.60;99.90;;;;;;6724774;88;20185;-76
2023/02/09 20:25:12;;;;;;;1999.90;999.90;;;0.60;99.90;;;;;;6726173;88;20359;-76
2023/02/09 20:35:13;;;;;;;1999.90;999.90;;;0.60;99.90;;;;;;6725848;88;20230;-77
2023/02/09 20:55:34;;;;;;;1999.90;999.90;;;0.90;99.90;;;;;;6726822;88;20243;-75
2023/02/09 21:05:34;;;;;;;1999.90;999.90;;;0.90;99.90;;;;;;6723259;88;20708;-75
2023/02/09 21:15:40;;;;;;;1999.90;999.90;;;0.90;99.90;;;;;;6729018;88;20695;-74
2023/02/09 21:25:40;;;;;;;1999.90;999.90;;;0.90;99.90;;;;;;6724956;88;21048;-77
2023/02/09 21:35:41;;;;;;;1999.90;999.90;;;1.10;99.90;;;;;;6728793;88;20210;-77
2023/02/09 21:45:42;;;;;;;1999.90;999.90;;;1.20;99.90;;;;;;6730134;88;20222;-76
2023/02/09 21:55:42;;;;;;;1999.90;999.90;;;1.40;99.90;;;;;;6726438;88;20190;-77
2023/02/09 22:05:43;;;;;;;1999.90;999.90;;;1.20;99.90;;;;;;6732910;88;20798;-77
2023/02/09 22:15:44;;;;;;;1999.90;999.90;;;1.20;99.90;;;;;;6723054;88;20194;-76
2023/02/09 22:25:44;;;;;;;1999.90;999.90;;;1.20;99.90;;;;;;6719014;88;20231;-77
2023/02/09 22:35:46;;;;;;;1999.90;999.90;;;1.10;99.90;;;;;;6731767;88;20244;-76
2023/02/09 22:45:53;;;;;;;1999.90;999.90;;;1.20;99.90;;;;;;6736657;88;20182;-77
2023/02/09 22:55:54;;;;;;;1999.90;999.90;;;1.30;99.90;;;;;;6733642;88;20652;-77
2023/02/09 23:05:55;;;;;;;1999.90;999.90;;;1.40;99.90;;;;;;6731593;88;20184;-76
2023/02/09 23:16:08;;;;;;;1999.90;999.90;;;1.50;99.90;;;;;;6729590;88;20365;-77
2023/02/09 23:26:09;;;;;;;1999.90;999.90;;;1.60;99.90;;;;;;6736676;88;20237;-76
2023/02/09 23:46:16;;;;;;;1999.90;999.90;;;1.60;99.90;;;;;;6756771;88;20562;-76
2023/02/09 23:56:17;;;;;;;1999.90;999.90;;;1.60;99.90;;;;;;6756277;88;20200;-76
